Time;durP1;ratioP1;P1;durP2;ratioP2;P2;SDS_P1;SDS_P2;PMS_P1;PMS_P2;Temp;Humidity;BMP_temperature;BMP_pressure;BME280_temperature;BME280_humidity;BME280_pressure;Samples;Min_cycle;Max_cycle;Signal;HPM_P1;HPM_P2
2023/12/06 00:00:50;;;;;;;5.80;4.33;;;0.80;99.90;;;;;;5061602;28;20204;-89
2023/12/06 00:03:17;;;;;;;7.80;4.37;;;0.90;99.90;;;;;;5059211;28;20194;-89
2023/12/06 00:05:44;;;;;;;6.77;4.57;;;0.90;99.90;;;;;;5058699;28;20256;-89
2023/12/06 00:08:11;;;;;;;6.60;4.30;;;1.00;99.90;;;;;;5039336;28;20200;-89
2023/12/06 00:10:41;;;;;;;32.17;17.80;;;0.90;99.90;;;;;;5023536;28;20205;-90
2023/12/06 00:13:08;;;;;;;8.37;5.37;;;1.00;99.90;;;;;;5050747;28;20201;-89
2023/12/06 00:15:34;;;;;;;5.87;3.70;;;1.10;99.90;;;;;;5040632;28;20205;-89
2023/12/06 00:18:01;;;;;;;6.93;3.93;;;1.20;99.90;;;;;;5037443;28;20214;-89
2023/12/06 00:20:29;;;;;;;4.37;3.60;;;1.20;99.90;;;;;;5038168;28;20289;-89
2023/12/06 02:30:28;;;;;;;0.70;0.70;;;2.90;99.90;;;;;;5061824;28;20241;-90
2023/12/06 02:32:55;;;;;;;0.80;0.70;;;2.90;99.90;;;;;;5038345;28;20206;-91
2023/12/06 02:35:27;;;;;;;0.70;0.60;;;2.90;99.90;;;;;;5040677;28;20572;-90
2023/12/06 02:37:57;;;;;;;0.70;0.70;;;2.90;99.90;;;;;;5062285;28;20230;-90
2023/12/06 02:40:27;;;;;;;0.60;0.60;;;3.00;99.90;;;;;;5027806;28;20202;-90
2023/12/06 02:42:54;;;;;;;0.50;0.50;;;3.00;99.90;;;;;;5053859;28;20208;-91
2023/12/06 02:45:21;;;;;;;0.73;0.60;;;3.10;99.90;;;;;;5042662;28;20216;-90
2023/12/06 02:47:49;;;;;;;1.13;0.70;;;3.20;99.90;;;;;;5055227;28;20206;-89
2023/12/06 02:50:16;;;;;;;0.60;0.60;;;3.30;99.90;;;;;;5063628;28;20214;-90
2023/12/06 02:52:43;;;;;;;0.60;0.60;;;3.20;99.90;;;;;;5060617;28;20217;-91
2023/12/06 02:55:10;;;;;;;0.70;0.70;;;3.10;99.90;;;;;;5040474;28;20202;-90
2023/12/06 02:57:37;;;;;;;0.73;0.73;;;3.20;99.90;;;;;;5028701;28;20288;-90
2023/12/06 03:00:05;;;;;;;0.70;0.70;;;3.20;99.90;;;;;;5063548;28;20224;-91
2023/12/06 03:02:32;;;;;;;0.57;0.57;;;3.20;99.90;;;;;;5062950;28;20198;-90
2023/12/06 03:07:41;;;;;;;1.47;0.67;;;3.20;99.90;;;;;;5071791;28;20198;-90
2023/12/06 03:10:09;;;;;;;1.00;0.77;;;3.10;99.90;;;;;;5090877;28;20194;-90
2023/12/06 03:12:36;;;;;;;1.23;0.83;;;3.10;99.90;;;;;;5067297;28;20204;-91
2023/12/06 03:15:03;;;;;;;1.37;0.80;;;3.10;99.90;;;;;;5032116;28;20197;-90
2023/12/06 03:17:30;;;;;;;1.13;0.90;;;3.00;99.90;;;;;;5046922;28;20208;-91
2023/12/06 03:19:57;;;;;;;0.70;0.70;;;3.10;99.90;;;;;;5040858;28;20234;-91
2023/12/06 03:22:25;;;;;;;1.13;0.93;;;3.10;99.90;;;;;;5065151;28;20221;-90
2023/12/06 03:24:52;;;;;;;0.80;0.80;;;3.20;99.90;;;;;;5067321;28;20224;-91
2023/12/06 03:27:19;;;;;;;0.70;0.70;;;3.20;99.90;;;;;;5063945;28;20196;-90
2023/12/06 03:29:46;;;;;;;1.10;0.80;;;3.20;99.90;;;;;;5040154;28;20269;-91
2023/12/06 03:32:13;;;;;;;1.07;0.73;;;3.20;99.90;;;;;;5057951;28;20198;-91
2023/12/06 03:34:43;;;;;;;0.70;0.70;;;3.10;99.90;;;;;;5066218;28;20197;-91
2023/12/06 03:37:10;;;;;;;0.90;0.80;;;3.10;99.90;;;;;;5053454;28;20213;-90
2023/12/06 03:42:18;;;;;;;1.20;0.93;;;3.10;99.90;;;;;;5057030;28;20233;-90
2023/12/06 03:44:50;;;;;;;0.70;0.70;;;3.10;99.90;;;;;;5062810;28;20235;-91
2023/12/06 03:47:17;;;;;;;1.00;0.70;;;3.10;99.90;;;;;;5046743;28;20208;-91
2023/12/06 03:49:44;;;;;;;1.03;0.80;;;3.10;99.90;;;;;;5038755;28;20251;-90
2023/12/06 03:52:23;;;;;;;1.33;0.70;;;3.10;99.90;;;;;;5066806;28;20194;-91
2023/12/06 04:00:59;;;;;;;1.43;0.80;;;3.00;99.90;;;;;;5067512;28;20268;-91
2023/12/06 04:03:46;;;;;;;1.73;0.80;;;2.90;99.90;;;;;;5053349;28;20265;-90
2023/12/06 04:06:13;;;;;;;0.80;0.80;;;2.90;99.90;;;;;;5071636;28;20257;-91
2023/12/06 04:08:39;;;;;;;0.77;0.77;;;2.90;99.90;;;;;;5075761;28;20292;-90
2023/12/06 04:11:08;;;;;;;0.80;0.80;;;2.90;99.90;;;;;;5063104;28;20277;-90
2023/12/06 04:13:35;;;;;;;1.47;1.00;;;3.00;99.90;;;;;;5042760;28;20206;-93
2023/12/06 04:16:02;;;;;;;1.23;0.83;;;2.90;99.90;;;;;;5070996;28;20205;-93
2023/12/06 04:18:28;;;;;;;1.20;0.70;;;3.00;99.90;;;;;;5062298;28;20218;-92
2023/12/06 04:20:55;;;;;;;1.23;1.00;;;3.10;99.90;;;;;;5057922;28;20229;-92
2023/12/06 04:23:22;;;;;;;1.20;1.00;;;3.10;99.90;;;;;;5047781;28;20222;-92
2023/12/06 04:25:49;;;;;;;0.90;0.90;;;3.00;99.90;;;;;;5055137;28;20214;-90
2023/12/06 04:28:18;;;;;;;1.20;0.80;;;2.90;99.90;;;;;;5043076;28;20202;-92
2023/12/06 04:30:45;;;;;;;0.87;0.87;;;2.90;99.90;;;;;;5060718;28;20209;-92
2023/12/06 04:33:12;;;;;;;1.70;1.03;;;3.00;99.90;;;;;;5064549;28;20198;-92
2023/12/06 04:35:39;;;;;;;1.23;1.00;;;2.90;99.90;;;;;;5059132;28;20210;-92
2023/12/06 04:38:06;;;;;;;2.40;0.90;;;2.90;99.90;;;;;;5062362;28;20618;-92
2023/12/06 04:40:33;;;;;;;1.50;1.10;;;2.90;99.90;;;;;;5064620;28;20208;-92
2023/12/06 04:43:00;;;;;;;1.30;1.00;;;2.90;99.90;;;;;;5064893;28;20251;-92
2023/12/06 04:45:28;;;;;;;1.13;0.80;;;2.90;99.90;;;;;;5057431;28;20212;-92
2023/12/06 04:47:55;;;;;;;1.10;1.00;;;2.90;99.90;;;;;;5062761;28;20197;-92
2023/12/06 04:50:22;;;;;;;2.17;1.00;;;2.90;99.90;;;;;;5050999;28;20222;-92
2023/12/06 04:52:49;;;;;;;1.10;1.00;;;2.90;99.90;;;;;;5067871;28;20202;-92
2023/12/06 04:55:16;;;;;;;0.90;0.90;;;2.90;99.90;;;;;;5066990;28;20213;-92
2023/12/06 04:57:43;;;;;;;1.17;0.90;;;3.00;99.90;;;;;;5063727;28;20285;-92
2023/12/06 05:02:54;;;;;;;0.80;0.80;;;2.80;99.90;;;;;;5067679;28;20208;-92
2023/12/06 05:05:21;;;;;;;1.60;1.00;;;2.80;99.90;;;;;;5060797;28;20654;-92
2023/12/06 05:07:48;;;;;;;1.00;1.00;;;2.80;99.90;;;;;;5065607;28;20198;-92
2023/12/06 05:10:14;;;;;;;1.33;1.10;;;2.90;99.90;;;;;;5058969;28;20202;-92
2023/12/06 05:12:41;;;;;;;2.03;1.00;;;2.90;99.90;;;;;;5063100;28;20210;-91
2023/12/06 05:15:10;;;;;;;1.97;1.10;;;2.90;99.90;;;;;;5060139;28;20195;-92
2023/12/06 05:17:37;;;;;;;2.07;1.10;;;2.90;99.90;;;;;;5050371;28;20273;-92
2023/12/06 05:20:16;;;;;;;1.93;1.40;;;2.80;99.90;;;;;;5068506;28;20236;-93
2023/12/06 05:22:42;;;;;;;1.23;1.13;;;2.80;99.90;;;;;;5060090;28;20297;-92
2023/12/06 05:25:09;;;;;;;1.43;1.03;;;2.80;99.90;;;;;;5058857;28;20190;-92
2023/12/06 05:27:36;;;;;;;1.93;1.10;;;2.80;99.90;;;;;;5071547;28;20178;-94
2023/12/06 05:30:06;;;;;;;1.03;0.97;;;2.80;99.90;;;;;;5056771;28;20202;-90
2023/12/06 05:32:33;;;;;;;2.80;1.10;;;2.80;99.90;;;;;;5045459;28;20205;-90
2023/12/06 05:35:00;;;;;;;1.07;0.97;;;2.80;99.90;;;;;;5048177;28;20197;-89
2023/12/06 05:37:28;;;;;;;1.57;1.23;;;2.80;99.90;;;;;;5049089;28;20535;-90
2023/12/06 05:39:55;;;;;;;2.10;1.37;;;2.70;99.90;;;;;;5046384;28;20226;-88
2023/12/06 05:42:28;;;;;;;1.80;1.23;;;2.70;99.90;;;;;;5051567;28;20289;-89
2023/12/06 05:44:55;;;;;;;2.23;1.20;;;2.70;99.90;;;;;;5051723;28;20569;-90
2023/12/06 05:47:23;;;;;;;2.57;1.33;;;2.70;99.90;;;;;;5041136;28;20227;-91
2023/12/06 05:49:50;;;;;;;2.33;1.80;;;2.80;99.90;;;;;;5048860;28;20201;-92
2023/12/06 05:52:17;;;;;;;1.33;1.20;;;2.80;99.90;;;;;;5050864;28;20197;-90
2023/12/06 05:54:45;;;;;;;2.53;1.20;;;2.80;99.90;;;;;;5048370;28;20669;-91
2023/12/06 05:57:12;;;;;;;1.30;1.20;;;2.80;99.90;;;;;;5051140;28;20194;-89
2023/12/06 05:59:39;;;;;;;1.73;1.20;;;2.80;99.90;;;;;;5048168;28;20222;-92
2023/12/06 06:02:06;;;;;;;1.50;1.30;;;2.80;99.90;;;;;;5053672;28;20203;-92
2023/12/06 06:04:33;;;;;;;1.47;1.10;;;2.90;99.90;;;;;;5063121;28;20206;-91
2023/12/06 06:06:59;;;;;;;1.70;1.27;;;2.80;99.90;;;;;;5055465;28;20204;-90
2023/12/06 06:09:26;;;;;;;2.50;1.30;;;2.90;99.90;;;;;;5047163;28;20205;-90
2023/12/06 06:11:54;;;;;;;1.87;1.37;;;2.90;99.90;;;;;;5057442;28;20201;-91
2023/12/06 06:14:21;;;;;;;2.23;1.10;;;2.90;99.90;;;;;;5056619;28;20206;-91
2023/12/06 06:16:48;;;;;;;2.47;1.53;;;3.50;99.90;;;;;;5064592;28;20261;-92
2023/12/06 06:19:15;;;;;;;3.93;3.33;;;3.50;99.90;;;;;;5060669;28;20206;-91
2023/12/06 06:21:42;;;;;;;2.60;1.80;;;3.80;99.90;;;;;;5051324;28;20218;-92
2023/12/06 06:24:10;;;;;;;1.90;1.67;;;3.70;99.90;;;;;;5052017;28;20550;-92
2023/12/06 06:26:36;;;;;;;2.70;1.30;;;4.00;99.90;;;;;;5054843;28;20244;-92
2023/12/06 06:29:06;;;;;;;1.43;1.10;;;4.00;99.10;;;;;;5039326;28;20212;-89
2023/12/06 06:31:32;;;;;;;2.23;1.23;;;3.80;99.30;;;;;;5045871;28;20232;-91
2023/12/06 06:34:01;;;;;;;2.67;1.30;;;3.80;99.40;;;;;;5068826;28;20204;-91
2023/12/06 06:36:28;;;;;;;3.83;1.30;;;3.80;99.90;;;;;;5053155;28;20260;-92
2023/12/06 06:38:56;;;;;;;1.43;1.33;;;3.80;99.90;;;;;;5051532;28;20225;-91
2023/12/06 06:41:24;;;;;;;2.57;1.30;;;3.60;99.70;;;;;;5047462;28;20206;-90
2023/12/06 06:43:51;;;;;;;4.33;1.40;;;3.60;99.90;;;;;;5046920;28;20643;-91
2023/12/06 06:46:20;;;;;;;5.83;3.87;;;3.60;99.90;;;;;;5052417;28;20202;-91
2023/12/06 06:49:07;;;;;;;6.40;3.30;;;3.50;99.90;;;;;;5040116;28;20240;-90
2023/12/06 06:51:35;;;;;;;3.83;2.23;;;3.50;99.90;;;;;;5055710;28;20551;-90
2023/12/06 06:54:02;;;;;;;1.97;1.23;;;3.20;99.90;;;;;;5054759;28;20202;-90
2023/12/06 06:57:01;;;;;;;8.80;6.40;;;3.20;99.90;;;;;;5054029;28;20210;-90
2023/12/06 06:59:28;;;;;;;2.23;1.80;;;3.60;99.90;;;;;;5050712;28;20221;-89
2023/12/06 07:01:57;;;;;;;7.80;5.17;;;3.70;99.90;;;;;;5042522;28;20199;-88
2023/12/06 07:04:24;;;;;;;5.80;3.67;;;3.90;99.90;;;;;;5047691;28;20193;-89
2023/12/06 07:06:50;;;;;;;1.77;1.10;;;3.70;99.80;;;;;;5038030;28;20281;-86
2023/12/06 07:09:17;;;;;;;3.33;1.47;;;3.60;99.40;;;;;;5048617;28;20210;-90
2023/12/06 07:11:45;;;;;;;2.50;1.70;;;3.70;99.90;;;;;;5053378;28;20198;-89
2023/12/06 07:14:12;;;;;;;3.10;1.77;;;3.70;99.90;;;;;;5053288;28;20205;-90
2023/12/06 07:20:48;;;;;;;1.50;1.10;;;4.00;99.60;;;;;;5055078;28;20224;-88
2023/12/06 07:23:18;;;;;;;3.10;1.37;;;3.90;99.00;;;;;;5077101;23;20230;-90
2023/12/06 07:25:45;;;;;;;2.83;1.30;;;3.60;99.10;;;;;;5041090;28;20201;-91
2023/12/06 07:28:13;;;;;;;2.80;1.50;;;3.50;99.70;;;;;;5066090;28;20201;-88
2023/12/06 07:30:40;;;;;;;1.93;1.37;;;3.50;99.90;;;;;;5051497;28;20197;-89
2023/12/06 07:33:07;;;;;;;4.53;1.60;;;3.80;99.90;;;;;;5071004;28;20761;-87
2023/12/06 07:35:35;;;;;;;2.17;1.30;;;3.60;99.80;;;;;;5048134;28;20235;-88
2023/12/06 07:38:02;;;;;;;2.10;1.30;;;3.50;99.60;;;;;;5068433;28;20198;-88
2023/12/06 07:40:30;;;;;;;1.30;1.20;;;3.70;99.90;;;;;;5065768;28;20235;-88
2023/12/06 07:42:57;;;;;;;2.50;1.17;;;3.50;99.90;;;;;;5068481;28;20205;-87
2023/12/06 07:45:24;;;;;;;2.10;1.30;;;3.50;99.90;;;;;;5050446;28;20202;-87
2023/12/06 07:47:51;;;;;;;2.03;1.20;;;3.60;99.90;;;;;;5057563;28;20787;-88
2023/12/06 07:50:19;;;;;;;1.40;1.10;;;3.60;99.90;;;;;;5064455;28;20213;-88
2023/12/06 07:52:47;;;;;;;1.90;1.23;;;3.70;99.50;;;;;;5069101;28;20295;-88
2023/12/06 07:55:14;;;;;;;3.00;1.40;;;4.20;99.50;;;;;;5031378;28;20272;-89
2023/12/06 07:57:42;;;;;;;3.10;1.87;;;4.50;97.70;;;;;;5065689;28;20194;-87
2023/12/06 08:00:11;;;;;;;7.73;6.00;;;4.60;96.10;;;;;;5064855;28;20213;-88
2023/12/06 08:02:39;;;;;;;193.53;126.17;;;4.50;96.60;;;;;;5062690;28;20198;-88
2023/12/06 08:05:07;;;;;;;12.77;8.37;;;5.00;96.00;;;;;;5064063;28;20201;-91
2023/12/06 08:07:34;;;;;;;3.77;2.20;;;4.70;95.30;;;;;;5069476;28;20233;-89
2023/12/06 08:10:07;;;;;;;1.10;1.00;;;4.50;96.10;;;;;;5055067;28;20197;-89
2023/12/06 08:12:34;;;;;;;2.27;1.13;;;4.30;95.90;;;;;;5051773;28;20200;-90
2023/12/06 08:15:05;;;;;;;1.23;1.00;;;4.10;96.80;;;;;;5054953;28;20574;-90
2023/12/06 08:17:32;;;;;;;1.40;1.10;;;4.00;97.50;;;;;;5052456;28;20201;-90
2023/12/06 08:19:59;;;;;;;1.53;0.93;;;4.00;97.70;;;;;;5064328;28;20231;-89
2023/12/06 08:22:26;;;;;;;1.23;1.10;;;4.00;97.40;;;;;;5065023;28;20248;-87
2023/12/06 08:24:56;;;;;;;1.50;1.07;;;3.90;97.50;;;;;;5061242;28;20220;-89
2023/12/06 08:27:24;;;;;;;1.63;1.33;;;3.90;98.00;;;;;;5064593;28;20561;-90
2023/12/06 08:29:51;;;;;;;1.30;1.20;;;3.80;98.20;;;;;;5047434;28;20288;-89
2023/12/06 08:32:19;;;;;;;1.40;1.30;;;3.80;98.30;;;;;;5069329;28;20200;-89
2023/12/06 08:34:46;;;;;;;1.43;1.33;;;3.90;98.10;;;;;;5067238;28;20197;-89
2023/12/06 08:37:13;;;;;;;1.40;1.20;;;3.90;98.10;;;;;;5063512;28;20202;-89
2023/12/06 08:39:40;;;;;;;1.03;0.93;;;3.90;98.30;;;;;;5067970;28;20220;-94
2023/12/06 08:42:07;;;;;;;2.30;1.17;;;3.90;98.40;;;;;;5041327;28;20209;-89
2023/12/06 08:44:34;;;;;;;5.20;1.10;;;4.10;97.90;;;;;;5066440;28;20267;-90
2023/12/06 08:47:02;;;;;;;1.40;1.20;;;4.10;97.60;;;;;;5065048;28;20194;-88
2023/12/06 08:49:31;;;;;;;1.13;1.03;;;4.20;97.40;;;;;;5032353;28;20201;-89
2023/12/06 08:51:57;;;;;;;2.53;1.10;;;4.10;97.20;;;;;;5061833;28;20574;-89
2023/12/06 08:54:24;;;;;;;1.00;1.00;;;4.10;97.50;;;;;;5065174;28;20204;-89
2023/12/06 08:56:51;;;;;;;1.10;1.03;;;4.00;97.70;;;;;;5048353;28;20201;-89
2023/12/06 08:59:18;;;;;;;1.10;1.00;;;4.00;97.60;;;;;;5060258;28;20201;-89
2023/12/06 09:01:45;;;;;;;1.53;1.20;;;4.00;97.90;;;;;;5017722;28;20213;-89
2023/12/06 09:04:12;;;;;;;1.93;1.10;;;4.10;97.50;;;;;;5065729;28;20654;-89
2023/12/06 09:06:40;;;;;;;1.33;1.07;;;4.10;97.50;;;;;;5071419;28;20201;-89
2023/12/06 09:09:07;;;;;;;2.03;1.30;;;4.00;97.50;;;;;;5070132;28;20204;-89
2023/12/06 09:11:34;;;;;;;1.07;1.00;;;4.10;97.80;;;;;;5062858;28;20209;-89
2023/12/06 09:14:01;;;;;;;1.73;1.10;;;4.20;97.70;;;;;;5059376;28;20198;-89
2023/12/06 09:16:27;;;;;;;1.67;1.00;;;4.10;97.50;;;;;;5056146;28;20558;-89
2023/12/06 09:18:53;;;;;;;1.27;0.90;;;4.20;97.50;;;;;;5067478;28;20190;-89
2023/12/06 09:21:20;;;;;;;2.03;1.20;;;4.20;97.30;;;;;;5060140;28;20280;-89
2023/12/06 09:23:49;;;;;;;1.53;1.10;;;4.30;97.20;;;;;;5060431;28;20223;-91
2023/12/06 09:26:16;;;;;;;3.00;1.10;;;4.50;96.80;;;;;;5069737;28;20291;-89
2023/12/06 09:28:43;;;;;;;1.23;1.00;;;4.60;96.10;;;;;;5043794;28;20201;-88
2023/12/06 09:31:10;;;;;;;1.17;0.90;;;4.70;95.80;;;;;;5066299;28;20194;-88
2023/12/06 09:33:36;;;;;;;1.00;1.00;;;4.60;95.90;;;;;;5050699;28;20197;-88
2023/12/06 09:36:04;;;;;;;1.10;1.00;;;4.60;96.00;;;;;;5038467;28;20200;-89
2023/12/06 09:38:32;;;;;;;1.20;1.10;;;4.60;95.80;;;;;;5070046;28;20197;-88
2023/12/06 09:41:01;;;;;;;1.17;1.07;;;4.60;96.10;;;;;;5042884;28;20236;-89
2023/12/06 09:43:28;;;;;;;1.03;0.93;;;4.60;95.90;;;;;;5064668;28;20193;-89
2023/12/06 09:45:55;;;;;;;1.03;1.03;;;4.60;95.70;;;;;;5066982;28;20197;-89
2023/12/06 09:48:22;;;;;;;2.03;1.20;;;4.60;95.90;;;;;;5064813;28;20202;-88
2023/12/06 09:50:49;;;;;;;1.20;1.10;;;4.60;96.10;;;;;;5046367;28;20193;-88
2023/12/06 09:53:16;;;;;;;1.20;1.10;;;4.50;96.30;;;;;;5059965;28;20209;-88
2023/12/06 09:55:43;;;;;;;1.30;1.17;;;4.50;96.30;;;;;;5043760;28;20206;-89
2023/12/06 09:58:11;;;;;;;1.87;1.10;;;4.50;96.30;;;;;;5065814;28;20248;-89
2023/12/06 10:00:38;;;;;;;1.10;1.00;;;4.60;96.50;;;;;;5066940;28;20218;-91
2023/12/06 10:03:05;;;;;;;1.73;1.13;;;4.70;96.40;;;;;;5044967;28;20200;-89
2023/12/06 10:05:32;;;;;;;2.23;1.20;;;4.70;96.20;;;;;;5065987;28;20215;-89
2023/12/06 10:07:59;;;;;;;2.40;1.20;;;4.60;96.40;;;;;;5046959;28;20259;-89
2023/12/06 10:10:26;;;;;;;1.93;1.20;;;4.80;96.20;;;;;;5067863;28;20216;-91
2023/12/06 10:12:55;;;;;;;1.20;1.10;;;4.80;96.30;;;;;;5047743;28;20201;-92
2023/12/06 10:15:23;;;;;;;1.93;1.20;;;4.80;95.90;;;;;;5049171;28;20211;-91
2023/12/06 10:17:50;;;;;;;1.57;1.23;;;4.80;95.80;;;;;;5067117;28;20220;-89
2023/12/06 10:20:20;;;;;;;2.23;1.50;;;4.90;95.30;;;;;;5033612;28;20279;-91
2023/12/06 10:22:48;;;;;;;1.33;1.23;;;5.10;95.50;;;;;;5062966;28;20242;-89
2023/12/06 10:25:15;;;;;;;1.30;1.20;;;5.20;95.10;;;;;;5064459;28;20208;-90
2023/12/06 10:27:45;;;;;;;1.30;1.20;;;5.50;94.60;;;;;;5069386;28;20211;-91
2023/12/06 10:30:20;;;;;;;1.17;1.07;;;5.50;94.00;;;;;;5058428;28;20236;-90
2023/12/06 10:32:50;;;;;;;1.63;1.33;;;5.70;93.90;;;;;;5058098;28;20185;-91
2023/12/06 10:35:25;;;;;;;1.33;1.23;;;6.10;92.20;;;;;;5071284;28;20220;-90
2023/12/06 10:37:52;;;;;;;1.77;1.30;;;6.20;91.50;;;;;;5056733;28;20180;-90
2023/12/06 10:40:23;;;;;;;1.98;1.30;;;6.30;91.10;;;;;;5043165;28;20701;-90
2023/12/06 10:42:52;;;;;;;1.65;1.25;;;6.60;90.80;;;;;;5066924;28;20198;-90
2023/12/06 10:45:21;;;;;;;1.15;1.05;;;6.30;90.70;;;;;;5037309;28;20182;-90
2023/12/06 10:50:39;;;;;;;1.30;1.20;;;6.70;90.00;;;;;;5054957;28;20251;-91
2023/12/06 10:53:08;;;;;;;2.28;1.30;;;6.60;90.10;;;;;;5057017;28;20200;-91
2023/12/06 10:55:37;;;;;;;1.35;1.20;;;6.80;90.00;;;;;;5067279;28;20190;-91
2023/12/06 10:58:06;;;;;;;1.33;1.20;;;6.60;90.00;;;;;;5062037;28;20652;-91
2023/12/06 11:00:34;;;;;;;1.45;1.33;;;6.30;89.80;;;;;;5074542;28;20213;-90
2023/12/06 11:03:03;;;;;;;1.63;1.40;;;6.00;90.80;;;;;;5063379;28;20219;-91
2023/12/06 11:05:37;;;;;;;1.52;1.42;;;5.90;91.60;;;;;;5064129;28;20201;-91
2023/12/06 11:08:23;;;;;;;1.35;1.25;;;5.60;91.50;;;;;;5066153;28;20194;-91
2023/12/06 11:25:21;;;;;;;1.50;1.40;;;5.80;91.50;;;;;;5365193;22;20290;-91
2023/12/06 11:27:50;;;;;;;1.65;1.48;;;5.70;91.70;;;;;;5041323;28;20275;-91
2023/12/06 11:30:17;;;;;;;2.67;1.73;;;5.80;91.70;;;;;;5064437;28;20569;-91
2023/12/06 11:32:46;;;;;;;3.93;1.50;;;5.70;91.70;;;;;;5068295;28;20707;-91
2023/12/06 11:35:15;;;;;;;2.70;1.50;;;5.60;92.00;;;;;;5071375;28;20270;-91
2023/12/06 11:41:59;;;;;;;2.27;1.37;;;5.70;91.80;;;;;;4956637;28;20232;-91
2023/12/06 11:44:59;;;;;;;2.05;1.83;;;5.70;91.50;;;;;;4953941;28;20582;-91
2023/12/06 11:47:26;;;;;;;2.50;1.90;;;5.50;91.90;;;;;;4944022;29;20202;-91
2023/12/06 11:49:53;;;;;;;1.87;1.40;;;5.50;91.80;;;;;;4990314;28;20200;-91
2023/12/06 11:52:26;;;;;;;2.27;1.80;;;5.50;92.20;;;;;;5072677;28;20235;-91
2023/12/06 11:54:54;;;;;;;1.70;1.40;;;5.50;91.60;;;;;;5065374;28;20208;-92
2023/12/06 11:57:21;;;;;;;2.33;1.67;;;5.40;91.80;;;;;;5068523;28;20208;-91
2023/12/06 11:59:49;;;;;;;1.97;1.70;;;5.40;91.90;;;;;;5067661;28;20205;-90
2023/12/06 12:02:17;;;;;;;2.10;1.90;;;5.50;91.80;;;;;;5066302;28;20222;-89
2023/12/06 12:04:44;;;;;;;2.00;1.80;;;5.40;91.60;;;;;;5066974;28;20569;-90
2023/12/06 12:07:12;;;;;;;2.67;1.77;;;5.30;91.80;;;;;;5068549;28;20189;-90
2023/12/06 12:09:41;;;;;;;2.83;1.93;;;5.20;92.10;;;;;;5067705;28;20654;-90
2023/12/06 12:12:08;;;;;;;1.90;1.70;;;5.20;92.40;;;;;;5068791;28;20197;-90
2023/12/06 12:14:37;;;;;;;1.73;1.63;;;5.20;92.20;;;;;;5064577;28;20201;-90
2023/12/06 12:17:05;;;;;;;1.90;1.70;;;5.20;92.30;;;;;;5067724;28;20197;-92
2023/12/06 12:19:32;;;;;;;2.07;1.87;;;5.20;92.20;;;;;;5060993;28;20201;-91
2023/12/06 12:22:03;;;;;;;1.80;1.70;;;5.20;92.20;;;;;;5044575;28;20280;-87
2023/12/06 12:24:30;;;;;;;1.97;1.60;;;5.20;92.30;;;;;;5046413;28;20233;-88
2023/12/06 12:26:58;;;;;;;1.93;1.63;;;5.10;92.40;;;;;;5049452;28;20273;-85
2023/12/06 12:29:25;;;;;;;2.87;1.70;;;5.00;92.50;;;;;;5050029;28;20204;-88
2023/12/06 12:31:53;;;;;;;2.77;1.90;;;5.00;92.40;;;;;;5123401;22;20210;-88
2023/12/06 12:34:20;;;;;;;2.53;1.80;;;5.00;92.40;;;;;;5041383;28;20592;-89
2023/12/06 12:36:47;;;;;;;1.97;1.80;;;4.90;92.80;;;;;;5063290;28;20898;-90
2023/12/06 12:39:15;;;;;;;2.03;1.57;;;4.90;93.00;;;;;;5053468;28;20194;-92
2023/12/06 12:41:50;;;;;;;2.67;1.97;;;4.90;93.00;;;;;;5062739;28;20231;-93
2023/12/06 12:44:19;;;;;;;2.40;1.80;;;4.90;92.90;;;;;;5063274;28;20197;-91
2023/12/06 12:46:46;;;;;;;2.57;1.80;;;4.80;92.90;;;;;;5073805;28;20197;-95
2023/12/06 12:49:13;;;;;;;2.07;1.70;;;4.80;93.00;;;;;;5066834;28;20200;-93
2023/12/06 12:51:40;;;;;;;1.70;1.60;;;4.80;93.10;;;;;;5052646;28;20546;-94
2023/12/06 12:54:06;;;;;;;3.40;1.83;;;4.80;93.30;;;;;;5048372;28;20649;-94
2023/12/06 12:56:33;;;;;;;2.20;1.80;;;4.70;93.40;;;;;;5066779;28;20193;-95
2023/12/06 12:59:00;;;;;;;2.97;1.90;;;4.70;93.40;;;;;;5069373;28;20206;-88
2023/12/06 13:01:28;;;;;;;3.67;2.00;;;4.80;93.30;;;;;;5071034;28;20221;-91
2023/12/06 13:03:55;;;;;;;2.37;2.17;;;4.80;93.10;;;;;;5068970;28;20201;-90
2023/12/06 13:06:22;;;;;;;3.47;1.80;;;4.90;92.90;;;;;;5063779;28;20197;-90
2023/12/06 13:08:49;;;;;;;2.07;1.87;;;4.80;93.10;;;;;;5060733;28;20203;-87
2023/12/06 13:11:16;;;;;;;2.60;1.80;;;4.70;93.30;;;;;;5065965;28;20208;-87
2023/12/06 13:13:43;;;;;;;2.80;2.00;;;4.70;93.40;;;;;;5054340;28;20658;-91
2023/12/06 13:16:09;;;;;;;3.00;1.90;;;4.60;93.60;;;;;;5063180;28;20200;-86
2023/12/06 13:18:38;;;;;;;2.33;2.00;;;4.70;93.50;;;;;;5048894;28;20646;-86
2023/12/06 13:21:05;;;;;;;1.80;1.70;;;4.70;93.60;;;;;;5063116;28;20594;-87
2023/12/06 13:23:34;;;;;;;1.90;1.80;;;4.60;93.80;;;;;;5064923;28;20210;-90
2023/12/06 13:26:01;;;;;;;2.10;1.57;;;4.60;93.90;;;;;;5073163;28;20190;-89
2023/12/06 13:28:27;;;;;;;3.37;2.47;;;4.70;93.80;;;;;;5066266;28;20216;-89
2023/12/06 13:30:54;;;;;;;2.50;1.80;;;4.60;93.90;;;;;;5051474;28;20204;-89
2023/12/06 13:33:21;;;;;;;2.37;1.90;;;4.70;93.90;;;;;;5050004;28;20255;-88
2023/12/06 13:35:50;;;;;;;2.23;1.83;;;4.80;93.40;;;;;;5068941;28;20561;-91
2023/12/06 13:38:16;;;;;;;2.87;2.13;;;4.80;93.40;;;;;;5063667;28;20202;-89
2023/12/06 13:40:43;;;;;;;2.17;1.90;;;4.80;93.50;;;;;;5046718;28;20197;-91
2023/12/06 13:43:10;;;;;;;2.27;2.07;;;4.70;93.60;;;;;;5052741;28;20634;-90
2023/12/06 13:45:37;;;;;;;2.07;1.87;;;4.60;93.70;;;;;;5068596;28;20209;-90
2023/12/06 13:48:04;;;;;;;1.97;1.83;;;4.50;94.00;;;;;;5067502;28;20201;-90
2023/12/06 13:50:31;;;;;;;2.00;1.80;;;4.50;94.00;;;;;;5065636;28;20202;-91
2023/12/06 13:53:00;;;;;;;2.57;1.97;;;4.60;93.80;;;;;;5063467;28;20219;-88
2023/12/06 13:55:26;;;;;;;3.23;2.00;;;4.50;94.00;;;;;;5066751;28;20238;-90
2023/12/06 13:57:53;;;;;;;2.33;1.90;;;4.50;94.00;;;;;;5064466;28;20198;-89
2023/12/06 14:00:20;;;;;;;2.03;1.83;;;4.60;93.80;;;;;;5054302;28;20205;-89
2023/12/06 14:02:47;;;;;;;3.93;2.20;;;4.50;93.60;;;;;;5068687;28;20229;-88
2023/12/06 14:05:14;;;;;;;3.27;1.90;;;4.50;93.90;;;;;;5067200;28;20193;-86
2023/12/06 14:07:41;;;;;;;2.77;1.90;;;4.40;93.90;;;;;;5049502;28;20284;-88
2023/12/06 14:10:11;;;;;;;3.50;2.43;;;4.30;94.50;;;;;;5059705;28;20208;-87
2023/12/06 14:12:38;;;;;;;2.40;2.10;;;4.30;94.50;;;;;;5065178;28;20280;-88
2023/12/06 14:15:06;;;;;;;2.10;1.90;;;4.30;94.50;;;;;;5065422;28;20560;-87
2023/12/06 14:17:34;;;;;;;3.40;3.17;;;4.40;94.20;;;;;;5064914;28;20924;-92
2023/12/06 14:20:01;;;;;;;3.03;2.30;;;4.40;94.00;;;;;;5062609;28;20213;-89
2023/12/06 14:22:28;;;;;;;3.50;2.20;;;4.40;94.00;;;;;;5065919;28;20696;-88
2023/12/06 14:24:55;;;;;;;3.03;2.20;;;4.30;94.30;;;;;;5072867;28;20284;-85
2023/12/06 14:27:23;;;;;;;3.03;2.30;;;4.20;94.50;;;;;;5064342;28;20305;-88
2023/12/06 14:29:50;;;;;;;3.10;2.40;;;4.20;94.80;;;;;;5053032;28;20752;-89
2023/12/06 14:32:17;;;;;;;3.07;2.40;;;4.20;94.40;;;;;;5052962;28;20213;-88
2023/12/06 14:34:45;;;;;;;4.30;2.60;;;4.40;94.00;;;;;;5067248;28;20232;-88
2023/12/06 14:37:12;;;;;;;3.37;2.27;;;4.30;94.10;;;;;;5065121;28;20201;-89
2023/12/06 14:39:38;;;;;;;4.90;2.30;;;4.20;94.30;;;;;;5053727;28;20194;-86
2023/12/06 14:42:06;;;;;;;2.93;2.40;;;4.10;94.60;;;;;;5068368;28;20220;-86
2023/12/06 14:44:34;;;;;;;3.73;2.50;;;4.10;94.90;;;;;;5066541;28;20204;-84
2023/12/06 14:47:01;;;;;;;3.53;2.40;;;4.10;94.90;;;;;;5064060;28;20201;-87
2023/12/06 14:49:27;;;;;;;4.07;2.37;;;4.10;94.90;;;;;;5065980;28;20193;-86
2023/12/06 14:51:54;;;;;;;2.83;2.60;;;4.00;94.90;;;;;;5066224;28;20202;-83
2023/12/06 14:54:21;;;;;;;3.23;2.57;;;4.00;94.90;;;;;;5060727;28;20201;-84
2023/12/06 14:56:53;;;;;;;3.37;2.50;;;4.00;94.90;;;;;;5068244;28;20197;-91
2023/12/06 14:59:20;;;;;;;3.27;2.67;;;4.00;94.90;;;;;;5066260;28;20284;-88
2023/12/06 15:01:51;;;;;;;4.07;2.70;;;3.90;95.20;;;;;;5066022;28;20229;-89
2023/12/06 15:04:18;;;;;;;4.53;2.70;;;4.00;94.90;;;;;;5068625;28;20213;-89
2023/12/06 15:06:45;;;;;;;2.60;2.40;;;3.90;94.90;;;;;;5066438;28;20658;-88
2023/12/06 15:09:12;;;;;;;4.50;2.73;;;3.80;95.20;;;;;;5064056;28;20190;-89
2023/12/06 15:11:39;;;;;;;4.97;2.93;;;3.70;95.60;;;;;;5060175;28;20200;-88
2023/12/06 15:14:06;;;;;;;5.17;3.50;;;3.80;95.80;;;;;;5065873;28;20202;-89
2023/12/06 15:16:32;;;;;;;4.57;3.03;;;3.70;95.90;;;;;;5064356;28;20190;-89
2023/12/06 15:19:01;;;;;;;4.13;3.07;;;3.70;95.90;;;;;;5064104;28;20658;-89
2023/12/06 15:21:28;;;;;;;3.33;2.87;;;3.80;95.90;;;;;;5067513;28;20236;-89
2023/12/06 15:23:55;;;;;;;3.83;3.20;;;3.70;95.80;;;;;;5061346;28;20205;-88
2023/12/06 15:26:22;;;;;;;3.90;3.30;;;3.60;96.20;;;;;;5047987;28;20240;-88
2023/12/06 15:28:48;;;;;;;3.50;3.20;;;3.50;96.50;;;;;;5065575;28;20205;-87
2023/12/06 15:31:15;;;;;;;4.23;3.10;;;3.50;96.80;;;;;;5035245;28;20650;-85
2023/12/06 15:33:44;;;;;;;4.10;3.17;;;3.50;96.90;;;;;;5067516;28;20254;-84
2023/12/06 15:36:12;;;;;;;4.17;3.10;;;3.60;96.70;;;;;;5067460;28;20197;-85
2023/12/06 15:38:39;;;;;;;4.23;3.20;;;3.50;97.10;;;;;;5064675;28;20201;-85
2023/12/06 15:41:06;;;;;;;4.20;3.30;;;3.50;97.10;;;;;;5032346;28;20204;-84
2023/12/06 15:43:33;;;;;;;4.50;3.40;;;3.40;97.20;;;;;;5065680;28;20263;-85
2023/12/06 15:46:00;;;;;;;3.50;3.20;;;3.50;97.40;;;;;;5064981;28;20197;-84
2023/12/06 15:48:27;;;;;;;4.33;3.43;;;3.50;97.40;;;;;;5062195;28;20256;-83